CheckWX is a tool to help pilots better visualize weather data.  It is not intended as a substitute for an official pre-flight weather briefing.

04:37:17 UTC

KCUL METAR
Carmi Municipal Airport
Carmi, Illinois, USA
Current

22 mins ago

KCUL 290415Z AUTO 36015G19KT 10SM SCT027 SCT034 BKN060 00/M03 A3019 RMK AO2
Observed
Feb-29 @ 04:15 UTC
Wind
  • 360° at 15 KTS
  • Gusting to 19 KTS
Visibility
10 SM
Flight Rules
VFR
Cloud Levels
  • Scattered at 2,700' AGL
  • Scattered at 3,400' AGL
  • Broken at 6,000' AGL
Temperature
C / 32°F
Dewpoint
-3°C / 27°F
Humidity
80%
Altimeter
30.19" Hg
Pressure
1022.32 hPa
Previous

42 mins ago

KCUL 290355Z AUTO 36016G21KT 10SM BKN027 BKN034 OVC060 01/M02 A3018 RMK AO2
Observed
Feb-29 @ 03:55 UTC
Wind
  • 360° at 16 KTS
  • Gusting to 21 KTS
Visibility
10 SM
Flight Rules
MVFR
Cloud Levels
  • Broken at 2,700' AGL
  • Broken at 3,400' AGL
  • Overcast at 6,000' AGL
Temperature
C / 34°F
Dewpoint
-2°C / 28°F
Humidity
81%
Altimeter
30.18" Hg
Pressure
1022.02 hPa
Previous

1 hour ago

KCUL 290335Z AUTO 36013G20KT 10SM SCT028 SCT044 BKN060 01/M01 A3018 RMK AO2
Observed
Feb-29 @ 03:35 UTC
Wind
  • 360° at 13 KTS
  • Gusting to 20 KTS
Visibility
10 SM
Flight Rules
VFR
Cloud Levels
  • Scattered at 2,800' AGL
  • Scattered at 4,400' AGL
  • Broken at 6,000' AGL
Temperature
C / 34°F
Dewpoint
-1°C / 30°F
Humidity
87%
Altimeter
30.18" Hg
Pressure
1022.02 hPa